ZGGG Airport Information

Runway Information
Runway 02L Length 11811 ft width 148 ft
Elevation 41 ft Threshold 0 ft Heading 14
Runway 20R Length 11811 ft Width 148 ft
Elevation 43 ft Threshold 0 ft Heading 194
Runway 02R Length 12467 ft width 197 ft
Elevation 45 ft Threshold 0 ft Heading 14
Runway 20L Length 12467 ft Width 197 ft
Elevation 48 ft Threshold 670 ft Heading 194
Airport Frequencies
Type APP Name GUANGZHOU Frequency 120.4 MHZ
Type ATIS Name ATIS Frequency 128.6 MHZ
Type CLD Name CLD Frequency 121.95 MHZ
Type GND Name GND Frequency 121.75 MHZ
Type TWR Name TWR Frequency 118.1 MHZ
Airport Navaids
Type VOR-DME Name Cencun Frequency 114600 KHZ
Type VOR-DME Name Conghua Frequency 113000 KHZ
Type NDB Name Baiyun Frequency 411 KHZ
Type NDB Name Yanbu Frequency 423 KHZ
Type VOR-DME Name Yuantan Frequency 108600 KHZ
Airport Weather Information & NOTAM
ADDS - METARS form results

(2210 UTC 25 April 2018)
 
METAR text: ZGGG 252200Z 06001MPS 6000 BKN025 22/19 Q1012 NOSIG
Conditions at: ZGGG (GUANGZHOU/BAIYUN, CN) observed 2200 UTC 25 April 2018
Temperature: 22.0°C (72°F)
Dewpoint: 19.0°C (66°F) [RH = 83%]
Pressure (altimeter): 29.88 inches Hg (1012.0 mb)
Winds: from the ENE (60 degrees) at 2 MPH (2 knots; 1.0 m/s)
Visibility: 4 miles (6 km)
Ceiling: 2500 feet AGL
Clouds: broken clouds at 2500 feet AGL
Weather: no significant weather observed at this time

METAR text: ZGGG 252130Z VRB01MPS 6000 BKN025 22/19 Q1012 NOSIG
Conditions at: ZGGG (GUANGZHOU/BAIYUN, CN) observed 2130 UTC 25 April 2018
Temperature: 22.0°C (72°F)
Dewpoint: 19.0°C (66°F) [RH = 83%]
Pressure (altimeter): 29.88 inches Hg (1012.0 mb)
Winds: variable direction winds at 2 MPH (2 knots; 1.0 m/s)
Visibility: 4 miles (6 km)
Ceiling: 2500 feet AGL
Clouds: broken clouds at 2500 feet AGL
Weather: no significant weather observed at this time